createdAt,value
2018-12-25T00:01:00.751Z,18.60
2018-12-25T00:03:49.249Z,18.60
2018-12-25T00:06:30.411Z,18.60
2018-12-25T00:09:11.734Z,18.60
2018-12-25T00:11:53.066Z,18.50
2018-12-25T00:14:33.635Z,18.60
2018-12-25T00:17:02.696Z,18.60
2018-12-25T00:19:50.917Z,18.60
2018-12-25T00:22:32.139Z,18.50
2018-12-25T00:25:13.223Z,18.50
2018-12-25T00:27:52.951Z,18.50
2018-12-25T00:30:41.329Z,18.50
2018-12-25T00:33:22.183Z,18.50
2018-12-25T00:36:02.970Z,18.50
2018-12-25T00:38:44.122Z,18.50
2018-12-25T00:41:25.206Z,18.50
2018-12-25T00:44:05.786Z,18.50
2018-12-25T00:46:47.411Z,18.50
2018-12-25T00:49:28.475Z,18.60
2018-12-25T00:52:09.522Z,18.60
2018-12-25T00:54:50.988Z,18.50
2018-12-25T00:57:32.435Z,18.60
2018-12-25T01:00:12.982Z,18.50
2018-12-25T01:02:53.687Z,18.50
2018-12-25T01:05:34.325Z,18.50
2018-12-25T01:08:15.358Z,18.50
2018-12-25T01:13:38.362Z,18.50
2018-12-25T01:16:26.611Z,18.50
2018-12-25T01:19:08.087Z,18.50
2018-12-25T01:21:49.479Z,18.30
2018-12-25T01:24:30.326Z,18.30
2018-12-25T01:33:18.763Z,18.30
2018-12-25T01:35:59.631Z,18.20
2018-12-25T01:38:40.163Z,18.10
2018-12-25T01:41:21.385Z,18.10
2018-12-25T01:44:02.797Z,18.10
2018-12-25T01:46:43.430Z,18.10
2018-12-25T01:49:31.584Z,18.00
2018-12-25T01:52:07.195Z,18.00
2018-12-25T01:54:47.759Z,17.90
2018-12-25T01:57:28.510Z,17.90
2018-12-25T02:00:09.047Z,17.90
2018-12-25T02:02:49.494Z,17.90
2018-12-25T02:05:30.463Z,17.90
2018-12-25T02:08:11.359Z,17.90
2018-12-25T02:10:51.943Z,17.80
2018-12-25T02:13:32.602Z,17.80
2018-12-25T02:16:13.864Z,17.80
2018-12-25T02:18:55.321Z,17.80
2018-12-25T02:21:36.134Z,17.80
2018-12-25T02:24:17.757Z,17.80
2018-12-25T02:26:58.433Z,17.70
2018-12-25T02:29:39.783Z,17.70
2018-12-25T02:32:21.017Z,17.70
2018-12-25T02:35:01.940Z,17.70
2018-12-25T02:37:42.531Z,17.70
2018-12-25T02:40:23.578Z,17.70
2018-12-25T02:43:04.255Z,17.60
2018-12-25T02:45:45.098Z,17.60
2018-12-25T02:48:26.642Z,17.60
2018-12-25T02:51:07.582Z,17.60
2018-12-25T02:53:49.975Z,17.60
2018-12-25T02:56:30.505Z,17.60
2018-12-25T02:59:11.299Z,17.60
2018-12-25T03:01:52.587Z,17.50
2018-12-25T03:04:33.631Z,17.50
2018-12-25T03:07:14.455Z,17.50
2018-12-25T03:09:55.302Z,17.50
2018-12-25T03:12:36.016Z,17.50
2018-12-25T03:15:16.688Z,17.50
2018-12-25T03:17:57.550Z,17.50
2018-12-25T03:20:38.574Z,17.40
2018-12-25T03:23:19.835Z,17.40
2018-12-25T03:26:01.355Z,17.40
2018-12-25T03:28:41.963Z,17.40
2018-12-25T03:31:22.905Z,17.40
2018-12-25T03:34:03.566Z,17.40
2018-12-25T03:36:44.662Z,17.40
2018-12-25T03:39:25.584Z,17.40
2018-12-25T03:42:06.708Z,17.40
2018-12-25T03:44:47.651Z,17.40
2018-12-25T03:47:28.842Z,17.40
2018-12-25T03:50:11.095Z,17.40
2018-12-25T03:52:52.843Z,17.30
2018-12-25T03:55:33.649Z,17.30
2018-12-25T03:58:14.938Z,17.30
2018-12-25T04:00:56.157Z,17.30
2018-12-25T04:03:37.279Z,17.30
2018-12-25T04:06:18.382Z,17.30
2018-12-25T04:08:59.571Z,17.30
2018-12-25T04:11:40.202Z,17.30
2018-12-25T04:14:21.389Z,17.20
2018-12-25T04:17:02.188Z,17.20
2018-12-25T04:19:43.643Z,17.20
2018-12-25T04:22:25.650Z,17.20
2018-12-25T04:25:07.075Z,17.20
2018-12-25T04:27:48.647Z,17.20
2018-12-25T04:30:29.941Z,17.20
2018-12-25T04:33:10.883Z,17.10
2018-12-25T04:35:51.401Z,17.20
2018-12-25T04:38:32.091Z,17.10
2018-12-25T04:41:13.537Z,17.10
2018-12-25T04:43:54.666Z,17.10
2018-12-25T04:46:36.083Z,17.10
2018-12-25T04:49:16.803Z,17.10
2018-12-25T04:51:57.506Z,17.10
2018-12-25T04:54:38.110Z,17.10
2018-12-25T04:59:59.483Z,17.10
2018-12-25T05:02:40.794Z,17.00
2018-12-25T05:05:22.197Z,17.00
2018-12-25T05:08:03.017Z,17.00
2018-12-25T05:10:44.151Z,17.00
2018-12-25T05:13:25.203Z,17.00
2018-12-25T05:16:05.731Z,17.00
2018-12-25T05:18:46.717Z,17.00
2018-12-25T05:21:27.362Z,16.90
2018-12-25T05:24:08.759Z,16.90
2018-12-25T05:26:50.354Z,16.90
2018-12-25T05:29:31.662Z,16.90
2018-12-25T05:32:12.290Z,16.90
2018-12-25T05:34:53.691Z,16.90
2018-12-25T05:37:34.272Z,16.90
2018-12-25T05:40:14.786Z,16.90
2018-12-25T05:42:55.580Z,16.90
2018-12-25T05:45:37.204Z,16.80
2018-12-25T05:48:18.467Z,16.80
2018-12-25T05:50:59.126Z,16.80
2018-12-25T05:53:39.771Z,16.70
2018-12-25T05:56:21.185Z,16.80
2018-12-25T05:59:01.932Z,16.80
2018-12-25T06:01:43.295Z,16.70
2018-12-25T06:04:23.748Z,16.70
2018-12-25T06:07:05.327Z,16.70
2018-12-25T06:09:45.858Z,16.70
2018-12-25T06:12:26.603Z,16.70
2018-12-25T06:15:07.763Z,16.70
2018-12-25T06:17:48.414Z,16.70
2018-12-25T06:20:29.021Z,16.70
2018-12-25T06:23:10.347Z,16.70
2018-12-25T06:25:51.803Z,16.70
2018-12-25T06:28:33.285Z,16.60
2018-12-25T06:31:14.303Z,16.70
2018-12-25T06:33:55.140Z,16.70
2018-12-25T06:36:35.943Z,16.70
2018-12-25T06:39:16.982Z,16.60
2018-12-25T06:41:57.522Z,16.60
2018-12-25T06:44:39.085Z,16.60
2018-12-25T06:47:20.474Z,16.60
2018-12-25T06:50:01.374Z,16.60
2018-12-25T06:52:42.447Z,16.50
2018-12-25T06:55:23.235Z,16.50
2018-12-25T06:58:04.027Z,16.50
2018-12-25T07:00:44.797Z,16.50
2018-12-25T07:03:25.541Z,16.50
2018-12-25T07:06:06.430Z,16.50
2018-12-25T07:08:47.203Z,16.50
2018-12-25T07:11:28.667Z,16.50
2018-12-25T07:14:09.521Z,16.50
2018-12-25T07:16:50.927Z,16.50
2018-12-25T07:19:32.496Z,16.50
2018-12-25T07:22:13.227Z,16.40
2018-12-25T07:24:54.739Z,16.40
2018-12-25T07:27:38.324Z,16.40
2018-12-25T07:30:19.131Z,16.40
2018-12-25T07:32:59.784Z,16.40
2018-12-25T07:35:40.722Z,16.40
2018-12-25T07:38:21.614Z,16.40
2018-12-25T07:41:02.946Z,16.40
2018-12-25T07:43:44.515Z,16.40
2018-12-25T07:46:25.865Z,16.30
2018-12-25T07:49:06.892Z,16.30
2018-12-25T07:51:48.315Z,16.30
2018-12-25T07:54:29.816Z,16.30
2018-12-25T07:57:11.303Z,16.30
2018-12-25T07:59:51.966Z,16.30
2018-12-25T08:02:33.424Z,16.30
2018-12-25T08:05:14.091Z,16.30
2018-12-25T08:07:54.707Z,16.30
2018-12-25T08:10:35.550Z,16.30
2018-12-25T08:13:16.331Z,16.30
2018-12-25T08:15:57.339Z,16.30
2018-12-25T08:18:40.195Z,16.30
2018-12-25T08:21:29.078Z,16.30
2018-12-25T08:24:04.334Z,16.30
2018-12-25T08:26:45.323Z,16.20
2018-12-25T08:29:26.470Z,16.30
2018-12-25T08:32:07.654Z,16.30
2018-12-25T08:34:48.617Z,16.20
2018-12-25T08:37:29.422Z,16.20
2018-12-25T08:40:10.692Z,16.30
2018-12-25T08:42:52.204Z,16.20
2018-12-25T08:45:33.380Z,16.20
2018-12-25T08:48:14.230Z,16.20
2018-12-25T08:50:55.421Z,16.20
2018-12-25T08:53:36.706Z,16.20
2018-12-25T08:56:17.558Z,16.20
2018-12-25T08:58:58.906Z,16.20
2018-12-25T09:01:39.491Z,16.20
2018-12-25T09:04:20.951Z,16.20
2018-12-25T09:07:02.327Z,16.20
2018-12-25T09:09:43.243Z,16.20
2018-12-25T09:12:24.609Z,16.20
2018-12-25T09:15:05.238Z,16.20
2018-12-25T09:17:46.746Z,16.20
2018-12-25T09:20:27.659Z,16.30
2018-12-25T09:23:09.142Z,16.20
2018-12-25T09:25:50.621Z,16.20
2018-12-25T09:28:31.415Z,16.20
2018-12-25T09:31:12.662Z,16.20
2018-12-25T09:33:54.236Z,16.30
2018-12-25T09:36:35.763Z,16.50
2018-12-25T09:39:16.483Z,16.80
2018-12-25T09:41:57.976Z,17.10
2018-12-25T09:44:38.659Z,17.40
2018-12-25T09:47:21.482Z,17.80
2018-12-25T09:50:03.096Z,18.30
2018-12-25T09:52:43.903Z,18.80
2018-12-25T09:55:24.567Z,19.20
2018-12-25T09:58:05.160Z,19.60
2018-12-25T10:00:46.698Z,19.80
2018-12-25T10:03:27.595Z,19.80
2018-12-25T10:06:08.679Z,19.80
2018-12-25T10:08:49.879Z,20.00
2018-12-25T10:11:29.485Z,20.20
2018-12-25T10:14:17.689Z,20.50
2018-12-25T10:16:58.618Z,20.70
2018-12-25T10:19:39.259Z,20.80
2018-12-25T10:22:20.674Z,20.70
2018-12-25T10:25:01.799Z,20.70
2018-12-25T10:27:42.591Z,20.60
2018-12-25T10:30:23.506Z,20.70
2018-12-25T10:33:04.847Z,20.70
2018-12-25T10:35:46.083Z,20.70
2018-12-25T10:38:27.414Z,20.70
2018-12-25T10:41:08.151Z,20.70
2018-12-25T10:43:49.479Z,20.70
2018-12-25T10:46:30.455Z,20.70
2018-12-25T10:49:11.676Z,20.80
2018-12-25T10:51:52.351Z,20.90
2018-12-25T10:54:33.700Z,20.90
2018-12-25T10:57:14.527Z,20.90
2018-12-25T10:59:55.181Z,20.70
2018-12-25T11:02:36.290Z,20.70
2018-12-25T11:05:17.719Z,20.70
2018-12-25T11:07:59.244Z,20.60
2018-12-25T11:10:40.574Z,20.70
2018-12-25T11:13:21.191Z,20.70
2018-12-25T11:16:02.347Z,21.00
2018-12-25T11:18:49.048Z,20.90
2018-12-25T11:21:25.638Z,20.90
2018-12-25T11:24:06.363Z,21.00
2018-12-25T11:26:47.961Z,21.10
2018-12-25T11:29:28.726Z,21.20
2018-12-25T11:32:10.286Z,21.40
2018-12-25T11:34:51.691Z,21.50
2018-12-25T11:37:33.073Z,21.40
2018-12-25T11:40:13.988Z,21.50
2018-12-25T11:42:55.411Z,21.40
2018-12-25T11:45:36.874Z,21.40
2018-12-25T11:48:18.110Z,21.30
2018-12-25T11:50:58.915Z,21.30
2018-12-25T11:53:40.205Z,21.30
2018-12-25T11:56:09.322Z,21.40
2018-12-25T11:58:57.642Z,21.30
2018-12-25T12:01:39.223Z,21.30
2018-12-25T12:04:20.650Z,21.30
2018-12-25T12:07:01.434Z,21.30
2018-12-25T12:09:43.113Z,21.30
2018-12-25T12:12:23.772Z,21.30
2018-12-25T12:15:04.889Z,21.30
2018-12-25T12:17:45.594Z,21.30
2018-12-25T12:20:26.470Z,21.40
2018-12-25T12:23:07.550Z,21.30
2018-12-25T12:25:48.694Z,21.30
2018-12-25T12:28:29.951Z,21.30
2018-12-25T12:31:11.223Z,21.30
2018-12-25T12:33:51.763Z,21.40
2018-12-25T12:36:32.440Z,21.30
2018-12-25T12:41:53.667Z,21.30
2018-12-25T12:44:34.951Z,21.20
2018-12-25T12:47:16.134Z,21.30
2018-12-25T12:49:56.956Z,21.30
2018-12-25T12:52:45.246Z,21.30
2018-12-25T12:55:26.798Z,21.20
2018-12-25T12:58:07.728Z,21.20
2018-12-25T13:00:48.773Z,21.20
2018-12-25T13:03:30.143Z,21.30
2018-12-25T13:06:10.989Z,21.30
2018-12-25T13:08:52.405Z,21.20
2018-12-25T13:11:33.686Z,21.10
2018-12-25T13:14:14.520Z,21.00
2018-12-25T13:16:55.420Z,20.90
2018-12-25T13:19:36.787Z,21.00
2018-12-25T13:22:06.329Z,21.10
2018-12-25T13:24:54.712Z,21.10
2018-12-25T13:27:36.102Z,21.00
2018-12-25T13:30:17.583Z,20.90
2018-12-25T13:32:58.941Z,20.80
2018-12-25T13:35:39.849Z,20.90
2018-12-25T13:38:21.199Z,21.00
2018-12-25T13:41:11.310Z,20.90
2018-12-25T13:43:59.695Z,20.90
2018-12-25T13:46:41.118Z,20.80
2018-12-25T13:49:21.766Z,20.80
2018-12-25T13:52:03.202Z,20.90
2018-12-25T13:54:43.879Z,20.90
2018-12-25T13:57:23.323Z,20.80
2018-12-25T14:00:11.638Z,20.70
2018-12-25T14:02:52.590Z,20.70
2018-12-25T14:05:33.227Z,20.80
2018-12-25T14:08:14.171Z,20.80
2018-12-25T14:10:55.496Z,20.80
2018-12-25T14:13:36.398Z,20.80
2018-12-25T14:16:17.883Z,20.70
2018-12-25T14:18:59.296Z,20.70
2018-12-25T14:21:40.834Z,20.80
2018-12-25T14:24:21.449Z,20.80
2018-12-25T14:27:02.219Z,20.70
2018-12-25T14:29:43.236Z,20.70
2018-12-25T14:32:23.942Z,20.60
2018-12-25T14:35:05.264Z,20.60
2018-12-25T14:37:46.334Z,20.50
2018-12-25T14:40:15.651Z,20.60
2018-12-25T14:43:04.098Z,20.60
2018-12-25T14:45:45.361Z,20.60
2018-12-25T14:48:26.930Z,20.50
2018-12-25T14:51:08.330Z,20.50
2018-12-25T14:53:49.899Z,20.50
2018-12-25T14:56:30.624Z,20.50
2018-12-25T14:59:11.597Z,20.50
2018-12-25T15:01:51.338Z,20.50
2018-12-25T15:04:39.546Z,20.40
2018-12-25T15:07:20.838Z,20.40
2018-12-25T15:10:01.632Z,20.40
2018-12-25T15:12:42.435Z,20.40
2018-12-25T15:15:23.791Z,20.40
2018-12-25T15:18:05.290Z,20.30
2018-12-25T15:20:46.900Z,20.30
2018-12-25T15:23:28.392Z,20.30
2018-12-25T15:26:09.538Z,20.30
2018-12-25T15:28:50.838Z,20.30
2018-12-25T15:31:31.599Z,20.20
2018-12-25T15:34:12.635Z,20.20
2018-12-25T15:36:53.535Z,20.10
2018-12-25T15:39:34.162Z,20.10
2018-12-25T15:42:14.811Z,20.10
2018-12-25T15:44:56.247Z,20.10
2018-12-25T15:47:37.163Z,20.10
2018-12-25T15:50:17.854Z,20.00
2018-12-25T15:52:58.505Z,19.90
2018-12-25T15:55:39.231Z,20.00
2018-12-25T15:58:20.627Z,20.00
2018-12-25T16:01:01.332Z,19.90
2018-12-25T16:03:42.707Z,19.90
2018-12-25T16:06:24.243Z,19.80
2018-12-25T16:09:05.403Z,19.90
2018-12-25T16:11:46.830Z,19.90
2018-12-25T16:14:28.234Z,19.90
2018-12-25T16:17:09.182Z,19.80
2018-12-25T16:19:50.526Z,19.80
2018-12-25T16:22:32.065Z,19.80
2018-12-25T16:25:13.318Z,19.80
2018-12-25T16:27:54.107Z,19.80
2018-12-25T16:30:34.868Z,19.80
2018-12-25T16:33:16.303Z,19.70
2018-12-25T16:35:57.126Z,19.70
2018-12-25T16:38:37.863Z,19.70
2018-12-25T16:41:18.650Z,19.70
2018-12-25T16:43:59.147Z,19.70
2018-12-25T16:46:40.062Z,19.70
2018-12-25T16:49:21.551Z,19.70
2018-12-25T16:52:02.925Z,19.70
2018-12-25T16:54:44.376Z,19.70
2018-12-25T16:57:25.547Z,19.70
2018-12-25T17:00:06.080Z,19.70
2018-12-25T17:02:47.542Z,19.60
2018-12-25T17:05:28.966Z,19.70
2018-12-25T17:08:09.982Z,19.80
2018-12-25T17:10:50.932Z,19.70
2018-12-25T17:13:31.840Z,19.70
2018-12-25T17:16:12.343Z,19.70
2018-12-25T17:18:51.973Z,19.70
2018-12-25T17:21:33.118Z,19.80
2018-12-25T17:24:14.736Z,19.70
2018-12-25T17:26:55.926Z,19.70
2018-12-25T17:29:36.451Z,19.70
2018-12-25T17:32:17.022Z,19.70
2018-12-25T17:34:57.654Z,19.60
2018-12-25T17:37:38.198Z,19.60
2018-12-25T17:40:19.590Z,19.50
2018-12-25T17:43:00.167Z,19.50
2018-12-25T17:45:40.836Z,19.40
2018-12-25T17:48:21.759Z,19.40
2018-12-25T17:51:03.366Z,19.40
2018-12-25T17:53:44.530Z,19.40
2018-12-25T17:56:25.239Z,19.40
2018-12-25T17:59:05.771Z,19.40
2018-12-25T18:01:46.439Z,19.30
2018-12-25T18:04:27.235Z,19.20
2018-12-25T18:07:08.450Z,19.10
2018-12-25T18:09:49.854Z,19.00
2018-12-25T18:12:31.095Z,19.00
2018-12-25T18:15:12.300Z,19.00
2018-12-25T18:17:53.538Z,19.00
2018-12-25T18:20:34.206Z,19.10
2018-12-25T18:23:14.911Z,19.20
2018-12-25T18:25:55.840Z,19.10
2018-12-25T18:28:37.248Z,19.00
2018-12-25T18:31:18.199Z,19.00
2018-12-25T18:33:59.266Z,18.90
2018-12-25T18:36:40.784Z,18.90
2018-12-25T18:39:22.140Z,18.90
2018-12-25T18:42:03.604Z,18.80
2018-12-25T18:44:44.918Z,18.70
2018-12-25T18:47:25.635Z,18.70
2018-12-25T18:50:06.410Z,18.60
2018-12-25T18:52:46.990Z,18.60
2018-12-25T18:55:27.659Z,18.70
2018-12-25T18:58:08.990Z,18.60
2018-12-25T19:00:50.300Z,18.40
2018-12-25T19:03:30.839Z,18.40
2018-12-25T19:06:11.395Z,18.40
2018-12-25T19:08:53.017Z,18.30
2018-12-25T19:11:34.602Z,18.20
2018-12-25T19:14:15.423Z,18.20
2018-12-25T19:22:17.422Z,18.10
2018-12-25T19:24:58.899Z,18.10
2018-12-25T19:27:39.577Z,18.10
2018-12-25T19:30:20.984Z,18.00
2018-12-25T19:33:01.871Z,18.00
2018-12-25T19:35:42.531Z,18.00
2018-12-25T19:38:23.722Z,17.90
2018-12-25T19:41:04.607Z,17.90
2018-12-25T19:43:45.775Z,17.90
2018-12-25T19:46:26.378Z,17.80
2018-12-25T19:49:07.186Z,17.80
2018-12-25T19:51:48.619Z,17.80
2018-12-25T19:54:29.618Z,17.80
2018-12-25T19:57:11.112Z,17.70
2018-12-25T19:59:51.710Z,17.70
2018-12-25T20:02:32.292Z,17.70
2018-12-25T20:05:12.890Z,17.70
2018-12-25T20:07:54.494Z,17.70
2018-12-25T20:10:35.792Z,17.60
2018-12-25T20:13:17.359Z,17.60
2018-12-25T20:15:58.270Z,17.60
2018-12-25T20:18:39.742Z,17.60
2018-12-25T20:21:21.422Z,17.50
2018-12-25T20:24:03.156Z,17.50
2018-12-25T20:26:44.343Z,17.50
2018-12-25T20:29:25.022Z,17.40
2018-12-25T20:32:05.558Z,17.40
2018-12-25T20:34:46.301Z,17.40
2018-12-25T20:37:27.518Z,17.30
2018-12-25T20:40:08.794Z,17.30
2018-12-25T20:42:49.751Z,17.30
2018-12-25T20:45:30.554Z,17.30
2018-12-25T20:48:12.129Z,17.20
2018-12-25T20:50:53.609Z,17.20
2018-12-25T20:53:34.458Z,17.20
2018-12-25T20:56:36.047Z,17.10
2018-12-25T20:59:32.695Z,17.10
2018-12-25T21:02:13.571Z,17.10
2018-12-25T21:04:54.460Z,17.10
2018-12-25T21:07:35.514Z,17.00
2018-12-25T21:10:16.136Z,17.10
2018-12-25T21:12:56.632Z,17.00
2018-12-25T21:15:37.676Z,17.00
2018-12-25T21:18:19.051Z,16.90
2018-12-25T21:21:00.534Z,16.90
2018-12-25T21:23:41.666Z,16.90
2018-12-25T21:26:22.861Z,16.90
2018-12-25T21:29:04.234Z,16.90
2018-12-25T21:31:44.822Z,16.80
2018-12-25T21:34:25.510Z,16.80
2018-12-25T21:37:07.022Z,16.80
2018-12-25T21:39:47.729Z,16.80
2018-12-25T21:42:28.698Z,16.80
2018-12-25T21:45:09.418Z,16.80
2018-12-25T21:47:50.199Z,16.70
2018-12-25T21:50:31.492Z,16.70
2018-12-25T21:53:11.270Z,16.70
2018-12-25T21:55:52.498Z,16.70
2018-12-25T21:58:33.344Z,16.70
2018-12-25T22:01:14.337Z,16.70
2018-12-25T22:03:55.270Z,16.70
2018-12-25T22:06:36.785Z,16.70
2018-12-25T22:11:55.783Z,16.60
2018-12-25T22:14:36.714Z,16.60
2018-12-25T22:17:18.210Z,16.60
2018-12-25T22:19:47.183Z,16.60
2018-12-25T22:22:35.546Z,16.70
2018-12-25T22:25:17.070Z,16.70
2018-12-25T22:27:57.862Z,16.60
2018-12-25T22:30:39.415Z,16.60
2018-12-25T22:33:21.045Z,16.70
2018-12-25T22:36:02.378Z,16.70
2018-12-25T22:38:43.046Z,16.90
2018-12-25T22:41:24.234Z,17.20
2018-12-25T22:44:05.239Z,17.50
2018-12-25T22:46:46.226Z,17.80
2018-12-25T22:49:29.907Z,18.00
2018-12-25T22:52:11.260Z,18.30
2018-12-25T22:54:52.732Z,18.60
2018-12-25T22:57:21.997Z,18.70
2018-12-25T23:00:11.281Z,18.80
2018-12-25T23:02:52.793Z,19.00
2018-12-25T23:05:33.419Z,19.20
2018-12-25T23:08:14.697Z,19.20
2018-12-25T23:10:55.774Z,19.30
2018-12-25T23:13:36.727Z,19.50
2018-12-25T23:16:17.999Z,19.60
2018-12-25T23:18:59.010Z,19.60
2018-12-25T23:21:40.370Z,19.60
2018-12-25T23:24:21.190Z,19.70
2018-12-25T23:27:02.666Z,19.70
2018-12-25T23:29:43.617Z,19.70
2018-12-25T23:32:24.320Z,19.60
2018-12-25T23:35:05.407Z,19.60
2018-12-25T23:37:46.886Z,19.70
2018-12-25T23:40:28.062Z,19.70
2018-12-25T23:43:08.851Z,19.70
2018-12-25T23:45:50.310Z,19.60
2018-12-25T23:48:30.881Z,19.70
2018-12-25T23:51:11.801Z,19.70
2018-12-25T23:53:52.365Z,19.70
2018-12-25T23:56:33.118Z,19.60
2018-12-25T23:59:14.298Z,19.70
